Time;durP1;ratioP1;P1;durP2;ratioP2;P2;SDS_P1;SDS_P2;PMS_P1;PMS_P2;Temp;Humidity;BMP_temperature;BMP_pressure;BME280_temperature;BME280_humidity;BME280_pressure;Samples;Min_cycle;Max_cycle;Signal;HPM_P1;HPM_P2
2021/06/09 00:02:17;;;;;;;;;;;;;;;24.13;31.64;101824.34;5025091;28;100076;-83
2021/06/09 00:04:43;;;;;;;;;;;;;;;24.08;31.35;101826.56;5019954;28;96823;-85
2021/06/09 00:07:09;;;;;;;;;;;;;;;23.57;32.12;101831.25;5030771;28;96823;-82
2021/06/09 00:09:36;;;;;;;;;;;;;;;23.71;31.85;101825.72;5032865;28;100337;-84
2021/06/09 00:12:02;;;;;;;;;;;;;;;23.91;31.48;101818.84;5021789;28;97672;-84
2021/06/09 00:14:28;;;;;;;;;;;;;;;23.90;31.50;101827.91;5019489;28;96987;-83
2021/06/09 00:16:54;;;;;;;;;;;;;;;23.95;31.33;101827.59;5019753;28;97111;-83
2021/06/09 00:19:22;;;;;;;;;;;;;;;23.96;31.38;101822.03;5023246;28;97461;-84
2021/06/09 00:21:48;;;;;;;;;;;;;;;23.97;31.30;101826.47;5021882;28;99390;-83
2021/06/09 00:24:14;;;;;;;;;;;;;;;24.16;30.72;101829.50;5030193;28;97657;-84
2021/06/09 00:26:42;;;;;;;;;;;;;;;24.16;30.92;101826.81;5032328;28;96872;-83
2021/06/09 00:29:07;;;;;;;;;;;;;;;24.15;31.31;101833.22;5025738;28;98737;-84
2021/06/09 00:31:33;;;;;;;;;;;;;;;24.33;30.91;101832.81;5034793;28;99494;-84
2021/06/09 00:33:59;;;;;;;;;;;;;;;24.11;31.06;101830.84;5027429;28;96889;-82
2021/06/09 00:36:25;;;;;;;;;;;;;;;24.37;31.15;101832.47;5019268;28;96691;-83
2021/06/09 00:38:51;;;;;;;;;;;;;;;24.11;32.77;101836.25;5026491;28;98885;-82
2021/06/09 00:41:17;;;;;;;;;;;;;;;23.86;33.12;101836.34;5022668;28;96828;-83
2021/06/09 00:43:45;;;;;;;;;;;;;;;23.49;33.98;101843.59;5023033;28;96792;-83
2021/06/09 00:46:11;;;;;;;;;;;;;;;23.56;34.14;101850.28;5023716;28;97363;-82
2021/06/09 00:48:38;;;;;;;;;;;;;;;23.21;36.05;101840.13;5024247;28;96778;-83
2021/06/09 00:51:06;;;;;;;;;;;;;;;23.22;36.25;101846.41;5030104;28;101213;-83
2021/06/09 00:53:34;;;;;;;;;;;;;;;23.19;36.69;101842.06;5035642;28;96844;-83
2021/06/09 00:56:01;;;;;;;;;;;;;;;23.48;36.47;101848.13;5015134;28;96885;-83
2021/06/09 00:58:28;;;;;;;;;;;;;;;23.17;36.71;101844.00;5027673;28;97000;-83
2021/06/09 01:00:55;;;;;;;;;;;;;;;22.97;36.58;101840.03;5020784;28;97698;-83
2021/06/09 01:03:22;;;;;;;;;;;;;;;22.92;37.46;101842.19;5036509;28;97853;-84
2021/06/09 01:05:48;;;;;;;;;;;;;;;22.99;37.18;101845.31;5046527;28;95984;-83
2021/06/09 01:08:16;;;;;;;;;;;;;;;23.01;37.77;101838.00;5048529;27;100178;-82
2021/06/09 01:10:42;;;;;;;;;;;;;;;23.01;37.87;101833.47;5043492;27;99854;-84
2021/06/09 01:13:08;;;;;;;;;;;;;;;22.84;38.15;101843.72;5030685;28;96517;-85
2021/06/09 01:15:34;;;;;;;;;;;;;;;22.84;38.24;101841.00;5022166;28;96916;-85
2021/06/09 01:18:02;;;;;;;;;;;;;;;22.65;38.31;101836.84;5024061;28;100453;-85
2021/06/09 01:20:28;;;;;;;;;;;;;;;22.75;37.72;101834.41;5026333;28;99841;-83
2021/06/09 01:22:56;;;;;;;;;;;;;;;22.52;37.87;101838.66;5027451;28;97209;-84
2021/06/09 01:25:22;;;;;;;;;;;;;;;22.84;37.87;101832.94;5029415;28;97069;-86
2021/06/09 01:27:49;;;;;;;;;;;;;;;22.69;37.38;101842.91;5019731;28;100718;-83
2021/06/09 01:30:16;;;;;;;;;;;;;;;22.92;37.21;101834.09;5019848;28;100828;-83
2021/06/09 01:32:42;;;;;;;;;;;;;;;22.87;37.20;101836.25;5023943;28;96789;-83
2021/06/09 01:35:08;;;;;;;;;;;;;;;23.07;36.87;101828.59;5008973;28;96810;-83
2021/06/09 01:37:34;;;;;;;;;;;;;;;22.92;37.57;101830.53;5028287;28;101447;-85
2021/06/09 01:40:04;;;;;;;;;;;;;;;22.77;38.21;101829.81;5016948;28;99150;-83
2021/06/09 01:42:31;;;;;;;;;;;;;;;22.90;37.77;101840.59;5020873;28;96892;-84
2021/06/09 01:44:57;;;;;;;;;;;;;;;22.80;38.32;101839.47;5018510;28;96833;-83
2021/06/09 01:47:23;;;;;;;;;;;;;;;22.60;38.56;101838.13;5018566;28;98192;-83
2021/06/09 01:49:50;;;;;;;;;;;;;;;22.39;39.02;101834.19;5022710;28;99833;-83
2021/06/09 01:52:17;;;;;;;;;;;;;;;22.23;39.86;101837.09;5018008;28;96867;-82
2021/06/09 01:54:43;;;;;;;;;;;;;;;22.08;40.01;101835.41;5018309;28;97389;-82
2021/06/09 01:57:11;;;;;;;;;;;;;;;22.46;39.46;101830.13;5034781;28;98170;-83
2021/06/09 01:59:36;;;;;;;;;;;;;;;22.32;39.40;101828.38;5018252;28;98220;-83
2021/06/09 02:02:03;;;;;;;;;;;;;;;21.93;40.16;101829.16;5023327;28;98660;-83
2021/06/09 02:04:29;;;;;;;;;;;;;;;21.94;40.05;101822.81;5022395;28;97464;-84
2021/06/09 02:06:55;;;;;;;;;;;;;;;21.95;39.76;101829.94;5024242;28;98809;-83
2021/06/09 02:09:23;;;;;;;;;;;;;;;22.10;39.55;101828.09;5018866;28;100083;-83
2021/06/09 02:11:49;;;;;;;;;;;;;;;22.06;39.75;101822.03;5017496;28;96896;-83
2021/06/09 02:14:18;;;;;;;;;;;;;;;22.01;40.22;101826.00;5017256;28;96863;-82
2021/06/09 02:16:44;;;;;;;;;;;;;;;21.78;40.67;101823.00;5020844;28;100955;-83
2021/06/09 02:19:10;;;;;;;;;;;;;;;21.69;40.48;101823.56;5028264;28;101360;-85
2021/06/09 02:21:37;;;;;;;;;;;;;;;21.74;40.39;101821.44;5002314;28;98800;-84
2021/06/09 02:24:04;;;;;;;;;;;;;;;21.67;40.40;101820.13;5022514;28;96868;-84
2021/06/09 02:26:30;;;;;;;;;;;;;;;21.63;40.71;101823.97;5027619;28;99488;-84
2021/06/09 02:28:57;;;;;;;;;;;;;;;21.67;40.72;101819.25;5037468;28;99132;-84
2021/06/09 02:31:24;;;;;;;;;;;;;;;21.80;40.50;101817.47;5037079;27;96555;-84
2021/06/09 02:33:51;;;;;;;;;;;;;;;21.68;40.67;101816.47;5035826;27;96376;-83
2021/06/09 02:36:17;;;;;;;;;;;;;;;21.68;40.75;101819.16;5038902;27;98260;-84
2021/06/09 02:38:43;;;;;;;;;;;;;;;21.55;41.29;101820.03;5045164;27;100296;-84
2021/06/09 02:41:09;;;;;;;;;;;;;;;21.45;41.57;101814.41;5033088;28;96727;-84
2021/06/09 02:43:35;;;;;;;;;;;;;;;21.42;41.54;101820.84;5016524;28;96549;-84
2021/06/09 02:46:03;;;;;;;;;;;;;;;21.39;41.42;101817.50;5023375;28;99305;-83
2021/06/09 02:48:31;;;;;;;;;;;;;;;21.47;41.33;101823.22;5026101;28;98611;-84
2021/06/09 02:50:59;;;;;;;;;;;;;;;21.27;41.58;101820.94;5029135;28;98866;-84
2021/06/09 02:53:27;;;;;;;;;;;;;;;21.50;41.27;101817.66;5020859;28;96717;-83
2021/06/09 02:55:59;;;;;;;;;;;;;;;21.16;42.04;101821.63;5018425;28;98020;-83
2021/06/09 02:58:30;;;;;;;;;;;;;;;21.70;40.66;101825.31;5027828;28;100851;-85
2021/06/09 03:01:00;;;;;;;;;;;;;;;21.15;41.77;101821.69;5021206;28;97028;-82
2021/06/09 03:03:30;;;;;;;;;;;;;;;21.39;41.10;101823.75;5030297;28;96805;-84
2021/06/09 03:06:03;;;;;;;;;;;;;;;21.51;40.91;101818.53;5027006;28;100530;-85
2021/06/09 03:08:33;;;;;;;;;;;;;;;21.26;41.55;101820.09;5038736;28;101127;-84
2021/06/09 03:11:00;;;;;;;;;;;;;;;21.46;41.21;101824.22;5036817;28;96679;-84
2021/06/09 03:13:40;;;;;;;;;;;;;;;21.26;41.64;101828.16;5038460;28;97777;-83
2021/06/09 03:16:07;;;;;;;;;;;;;;;21.43;41.16;101827.09;5042332;28;100570;-84
2021/06/09 03:18:36;;;;;;;;;;;;;;;21.20;42.04;101827.69;5034184;28;99670;-83
2021/06/09 03:21:06;;;;;;;;;;;;;;;21.27;42.25;101827.19;5036202;28;96598;-82
2021/06/09 03:23:36;;;;;;;;;;;;;;;21.25;42.12;101830.94;5037266;28;96643;-83
2021/06/09 03:26:04;;;;;;;;;;;;;;;21.05;43.25;101833.03;5035515;28;98145;-83
2021/06/09 03:28:33;;;;;;;;;;;;;;;21.33;42.63;101823.28;5021546;28;98787;-83
2021/06/09 03:31:01;;;;;;;;;;;;;;;21.36;42.43;101818.53;5021414;28;96795;-84
2021/06/09 03:33:29;;;;;;;;;;;;;;;21.57;41.85;101812.75;5016781;28;96729;-83
2021/06/09 03:35:56;;;;;;;;;;;;;;;21.72;42.15;101812.63;5016889;28;100783;-83
2021/06/09 03:38:26;;;;;;;;;;;;;;;21.77;42.28;101809.63;5017431;28;101788;-84
2021/06/09 03:40:56;;;;;;;;;;;;;;;22.14;41.39;101813.47;5014887;28;96921;-83
2021/06/09 03:43:23;;;;;;;;;;;;;;;21.96;41.58;101814.69;5017714;28;96806;-83
2021/06/09 03:45:50;;;;;;;;;;;;;;;22.11;41.43;101814.53;5022258;28;98199;-84
2021/06/09 03:48:17;;;;;;;;;;;;;;;21.95;41.72;101821.00;5025609;28;98651;-83
2021/06/09 03:50:44;;;;;;;;;;;;;;;21.80;41.94;101815.66;5022688;28;96929;-81
2021/06/09 03:53:11;;;;;;;;;;;;;;;22.31;40.74;101815.91;5026442;28;97156;-85
2021/06/09 03:55:39;;;;;;;;;;;;;;;22.46;40.37;101812.13;5026848;28;97959;-83
2021/06/09 03:58:08;;;;;;;;;;;;;;;22.58;40.42;101818.50;5018219;28;98795;-85
2021/06/09 04:00:35;;;;;;;;;;;;;;;22.49;41.15;101813.78;5020641;28;96772;-85
2021/06/09 04:03:02;;;;;;;;;;;;;;;22.58;40.74;101819.38;5029927;28;97393;-86
2021/06/09 04:05:28;;;;;;;;;;;;;;;22.61;40.76;101819.19;5026549;28;100068;-84
2021/06/09 04:07:57;;;;;;;;;;;;;;;22.89;39.81;101806.50;5025933;28;99121;-84
2021/06/09 04:10:23;;;;;;;;;;;;;;;23.19;39.38;101808.84;5042931;28;96807;-84
2021/06/09 04:12:50;;;;;;;;;;;;;;;23.18;39.65;101818.78;5043184;28;96806;-84
2021/06/09 04:15:17;;;;;;;;;;;;;;;23.16;39.68;101814.47;5026151;28;98128;-83
2021/06/09 04:17:45;;;;;;;;;;;;;;;23.18;38.98;101820.59;5038704;28;98841;-84
2021/06/09 04:20:12;;;;;;;;;;;;;;;23.48;39.23;101814.88;5025104;28;96816;-85
2021/06/09 04:22:37;;;;;;;;;;;;;;;23.27;37.64;101819.97;5035709;28;96770;-84
2021/06/09 04:25:06;;;;;;;;;;;;;;;23.24;37.58;101821.03;5033160;28;98868;-85
2021/06/09 04:27:36;;;;;;;;;;;;;;;23.20;39.02;101819.53;5032607;28;97006;-84
2021/06/09 04:30:04;;;;;;;;;;;;;;;23.25;39.11;101829.97;5032920;28;96714;-85
2021/06/09 04:32:47;;;;;;;;;;;;;;;23.12;38.03;101818.34;5034243;28;96592;-84
2021/06/09 04:35:13;;;;;;;;;;;;;;;23.20;37.41;101822.22;5032226;28;98447;-83
2021/06/09 04:37:38;;;;;;;;;;;;;;;23.71;36.98;101822.16;5036451;28;99599;-82
2021/06/09 04:40:08;;;;;;;;;;;;;;;23.81;36.50;101820.50;5020568;28;96817;-84
2021/06/09 04:42:34;;;;;;;;;;;;;;;24.03;35.38;101823.31;5032292;28;96981;-84
2021/06/09 04:45:01;;;;;;;;;;;;;;;24.11;34.11;101826.31;5008445;28;97692;-83
2021/06/09 04:50:04;;;;;;;;;;;;;;;24.55;34.23;101820.25;5246583;22;100077;-83
2021/06/09 04:52:30;;;;;;;;;;;;;;;24.72;33.52;101820.78;5021234;28;96794;-84
2021/06/09 04:54:56;;;;;;;;;;;;;;;25.10;33.48;101823.19;5021498;28;97995;-83
2021/06/09 04:57:22;;;;;;;;;;;;;;;24.82;32.83;101819.94;5004117;28;97064;-83
2021/06/09 04:59:48;;;;;;;;;;;;;;;24.88;32.26;101821.28;5012026;28;97521;-84
2021/06/09 05:02:15;;;;;;;;;;;;;;;25.13;32.11;101822.97;5021232;28;97177;-83
2021/06/09 05:04:40;;;;;;;;;;;;;;;25.38;32.25;101825.41;5018148;28;100042;-85
2021/06/09 05:07:08;;;;;;;;;;;;;;;25.39;31.96;101822.59;5025273;28;98955;-84
2021/06/09 05:09:34;;;;;;;;;;;;;;;25.53;31.08;101813.38;5005053;28;96976;-84
2021/06/09 05:12:02;;;;;;;;;;;;;;;25.32;31.68;101813.25;5024217;28;96995;-84
2021/06/09 05:14:32;;;;;;;;;;;;;;;25.42;31.38;101816.06;5004948;28;97561;-85
2021/06/09 05:16:59;;;;;;;;;;;;;;;25.64;30.98;101818.78;5023908;28;100457;-84
2021/06/09 05:19:26;;;;;;;;;;;;;;;25.91;30.59;101823.78;5015479;28;96696;-84
2021/06/09 05:21:55;;;;;;;;;;;;;;;25.99;30.77;101820.44;5024692;28;98631;-84
2021/06/09 05:24:25;;;;;;;;;;;;;;;25.69;31.40;101816.56;5020992;28;100203;-85
2021/06/09 05:26:56;;;;;;;;;;;;;;;26.11;30.68;101822.09;5029259;28;100252;-85
2021/06/09 05:29:24;;;;;;;;;;;;;;;26.14;30.53;101817.28;5020078;28;96684;-85
2021/06/09 05:31:52;;;;;;;;;;;;;;;26.11;31.06;101816.69;5028823;28;96880;-86
2021/06/09 05:34:19;;;;;;;;;;;;;;;26.57;30.27;101819.94;5011279;28;97065;-84
2021/06/09 05:36:44;;;;;;;;;;;;;;;25.73;30.31;101815.28;5024158;28;100727;-84
2021/06/09 05:39:14;;;;;;;;;;;;;;;26.08;30.82;101819.63;5023850;28;97692;-84
2021/06/09 05:41:42;;;;;;;;;;;;;;;26.16;30.01;101817.16;5025932;28;97198;-84
2021/06/09 05:44:07;;;;;;;;;;;;;;;26.39;29.26;101823.34;5025264;28;98045;-84
2021/06/09 05:46:34;;;;;;;;;;;;;;;25.97;29.92;101822.41;5011691;28;97948;-84
2021/06/09 05:49:00;;;;;;;;;;;;;;;26.44;29.36;101824.69;5025654;28;97729;-84
2021/06/09 05:51:26;;;;;;;;;;;;;;;26.47;29.26;101827.13;5024406;28;97311;-84
2021/06/09 05:53:53;;;;;;;;;;;;;;;26.98;28.69;101819.06;5008906;28;101555;-83
2021/06/09 05:56:29;;;;;;;;;;;;;;;26.87;28.48;101824.56;5003072;27;98617;-84
2021/06/09 05:58:56;;;;;;;;;;;;;;;26.90;28.47;101828.91;5006881;28;97199;-84
2021/06/09 06:01:22;;;;;;;;;;;;;;;26.87;28.32;101827.25;5024013;28;97053;-82
2021/06/09 06:03:48;;;;;;;;;;;;;;;26.97;28.38;101824.66;5028019;28;96915;-87
2021/06/09 06:06:15;;;;;;;;;;;;;;;27.11;28.16;101821.56;5031850;28;100328;-83
2021/06/09 06:08:42;;;;;;;;;;;;;;;26.45;29.42;101825.56;5033161;28;96788;-84
2021/06/09 06:11:11;;;;;;;;;;;;;;;26.16;29.80;101834.25;5026616;28;96759;-84
2021/06/09 06:13:38;;;;;;;;;;;;;;;26.90;28.52;101826.19;5030028;28;97874;-85
2021/06/09 06:16:09;;;;;;;;;;;;;;;27.11;27.99;101831.59;5033678;28;100797;-86
2021/06/09 06:18:37;;;;;;;;;;;;;;;27.25;28.40;101826.63;5034758;28;96661;-85
2021/06/09 06:21:04;;;;;;;;;;;;;;;27.10;28.13;101825.31;5032649;28;96549;-86
2021/06/09 06:23:31;;;;;;;;;;;;;;;26.63;28.70;101825.81;5029655;28;99699;-85
2021/06/09 06:26:00;;;;;;;;;;;;;;;27.07;28.00;101814.69;5031371;28;98173;-84
2021/06/09 06:28:26;;;;;;;;;;;;;;;27.61;27.38;101821.66;5032575;28;96648;-84
2021/06/09 06:30:56;;;;;;;;;;;;;;;26.69;29.01;101833.44;5032796;28;96637;-84
2021/06/09 06:33:36;;;;;;;;;;;;;;;27.41;27.80;101825.28;5040492;28;98679;-85
2021/06/09 06:36:06;;;;;;;;;;;;;;;27.53;27.25;101826.91;5028144;28;99907;-84
2021/06/09 06:38:36;;;;;;;;;;;;;;;27.13;27.92;101824.16;5033680;28;96894;-84
2021/06/09 06:41:04;;;;;;;;;;;;;;;28.68;25.65;101828.91;5035843;28;96932;-87
2021/06/09 06:43:33;;;;;;;;;;;;;;;27.90;26.86;101833.44;5039028;27;100811;-89
2021/06/09 06:46:11;;;;;;;;;;;;;;;28.53;26.10;101833.94;5022530;28;99473;-88
2021/06/09 06:48:38;;;;;;;;;;;;;;;28.87;25.70;101827.03;5037123;28;96713;-87
2021/06/09 06:51:11;;;;;;;;;;;;;;;28.88;25.66;101830.63;5029940;28;96945;-86
2021/06/09 06:53:54;;;;;;;;;;;;;;;28.80;25.69;101830.50;5031905;28;99393;-85
2021/06/09 06:56:20;;;;;;;;;;;;;;;28.89;25.76;101830.44;5019161;28;98680;-88
2021/06/09 06:58:50;;;;;;;;;;;;;;;28.81;26.08;101832.22;5032882;28;96621;-86
2021/06/09 07:03:59;;;;;;;;;;;;;;;27.99;27.04;101834.44;5036467;28;99740;-88
2021/06/09 07:06:32;;;;;;;;;;;;;;;28.32;26.61;101831.38;5032409;28;99542;-87
2021/06/09 07:08:59;;;;;;;;;;;;;;;28.69;26.38;101831.47;5031908;28;96681;-87
2021/06/09 07:11:27;;;;;;;;;;;;;;;28.73;26.34;101834.75;5032251;28;97418;-85
2021/06/09 07:13:57;;;;;;;;;;;;;;;29.30;25.48;101831.03;5027938;28;99127;-86
2021/06/09 07:16:30;;;;;;;;;;;;;;;29.06;25.61;101837.00;5031736;28;98172;-85
2021/06/09 07:18:58;;;;;;;;;;;;;;;28.99;25.58;101835.03;5016789;28;97202;-86
2021/06/09 07:21:24;;;;;;;;;;;;;;;28.38;26.12;101832.66;5031685;28;96945;-87
2021/06/09 07:23:54;;;;;;;;;;;;;;;28.69;25.59;101828.75;5029435;28;99243;-87
2021/06/09 07:26:22;;;;;;;;;;;;;;;29.17;25.63;101830.50;5006481;28;98806;-85
2021/06/09 07:28:50;;;;;;;;;;;;;;;29.57;24.74;101835.66;5032010;28;97045;-86
2021/06/09 07:31:23;;;;;;;;;;;;;;;29.59;24.40;101828.22;5026193;28;97878;-85
2021/06/09 07:33:49;;;;;;;;;;;;;;;29.43;24.89;101830.72;5026032;28;100353;-86
2021/06/09 07:36:17;;;;;;;;;;;;;;;29.82;24.37;101828.63;5025389;28;100474;-86
2021/06/09 07:38:48;;;;;;;;;;;;;;;29.76;23.99;101826.53;5025698;28;98745;-86
2021/06/09 07:41:18;;;;;;;;;;;;;;;29.34;24.53;101827.06;5030316;28;96820;-86
2021/06/09 07:43:45;;;;;;;;;;;;;;;29.35;24.65;101825.16;5006289;28;98166;-87
2021/06/09 07:46:15;;;;;;;;;;;;;;;29.91;24.12;101828.59;5019865;28;99893;-88
2021/06/09 07:48:42;;;;;;;;;;;;;;;29.28;24.75;101825.72;5021815;28;96684;-86
2021/06/09 07:51:12;;;;;;;;;;;;;;;29.78;24.09;101828.09;5022657;28;97177;-86
2021/06/09 07:53:41;;;;;;;;;;;;;;;29.16;25.01;101826.06;5024808;28;100573;-85
2021/06/09 07:56:11;;;;;;;;;;;;;;;28.60;26.14;101826.91;5029894;28;100982;-87
2021/06/09 07:58:41;;;;;;;;;;;;;;;28.47;26.06;101823.63;5029245;28;96933;-87
2021/06/09 08:01:07;;;;;;;;;;;;;;;28.92;25.88;101818.44;5035773;28;96859;-84
2021/06/09 08:06:16;;;;;;;;;;;;;;;26.94;28.17;101827.63;5024515;28;98757;-86
2021/06/09 08:08:46;;;;;;;;;;;;;;;27.87;26.75;101820.16;5026834;28;97044;-87
2021/06/09 08:11:14;;;;;;;;;;;;;;;28.34;26.40;101823.94;5026162;28;96589;-85
2021/06/09 08:13:41;;;;;;;;;;;;;;;28.53;26.13;101823.06;5024074;28;96957;-82
2021/06/09 08:16:15;;;;;;;;;;;;;;;28.75;25.63;101820.03;5023737;28;99604;-86
2021/06/09 08:18:48;;;;;;;;;;;;;;;29.24;25.24;101826.19;5020710;28;98427;-85
2021/06/09 08:21:16;;;;;;;;;;;;;;;29.66;24.02;101822.00;5025769;28;97061;-87
2021/06/09 08:23:43;;;;;;;;;;;;;;;29.85;24.31;101817.44;5021762;28;99380;-86
2021/06/09 08:29:17;;;;;;;;;;;;;;;29.47;24.06;101827.53;5022707;28;97190;-87
2021/06/09 08:31:45;;;;;;;;;;;;;;;28.83;25.37;101828.31;5008964;28;97658;-86
2021/06/09 08:34:30;;;;;;;;;;;;;;;28.97;24.71;101826.13;5031741;28;100183;-89
2021/06/09 08:39:56;;;;;;;;;;;;;;;29.00;24.69;101831.31;5034249;28;96599;-89
2021/06/09 08:42:24;;;;;;;;;;;;;;;29.11;24.26;101825.66;5030067;28;96613;-94
2021/06/09 08:44:54;;;;;;;;;;;;;;;29.47;24.07;101824.00;5041157;28;99864;-94
2021/06/09 08:47:39;;;;;;;;;;;;;;;29.68;23.83;101817.25;5049905;28;96830;-93
2021/06/09 08:50:09;;;;;;;;;;;;;;;29.32;24.36;101820.88;5030927;28;95975;-88
2021/06/09 08:57:43;;;;;;;;;;;;;;;29.84;23.53;101815.72;5040621;27;96651;-89
2021/06/09 09:09:08;;;;;;;;;;;;;;;29.96;23.65;101817.25;5035736;28;97241;-89
2021/06/09 09:11:37;;;;;;;;;;;;;;;29.97;23.74;101824.41;5039497;28;97641;-87
2021/06/09 09:14:04;;;;;;;;;;;;;;;29.67;24.00;101817.41;5033535;28;96054;-88
2021/06/09 09:27:53;;;;;;;;;;;;;;;29.93;24.01;101812.13;5018504;28;99084;-87
2021/06/09 09:33:07;;;;;;;;;;;;;;;29.22;24.75;101811.88;5008212;28;96628;-88
2021/06/09 09:35:44;;;;;;;;;;;;;;;28.44;25.32;101813.03;5036572;28;96061;-90
2021/06/09 09:38:36;;;;;;;;;;;;;;;29.61;24.30;101810.69;5012450;28;99774;-89
2021/06/09 09:41:21;;;;;;;;;;;;;;;29.09;24.96;101819.50;5019564;28;100520;-91
2021/06/09 09:44:02;;;;;;;;;;;;;;;28.66;25.11;101820.03;5013106;28;96810;-91
2021/06/09 09:46:51;;;;;;;;;;;;;;;28.06;25.64;101822.88;5014981;28;98963;-89
2021/06/09 09:49:22;;;;;;;;;;;;;;;28.54;25.25;101813.91;5011964;28;98490;-89
2021/06/09 09:52:03;;;;;;;;;;;;;;;29.47;24.18;101822.09;5017247;28;97092;-88
2021/06/09 09:54:36;;;;;;;;;;;;;;;29.21;23.68;101816.44;4999185;28;96732;-88
2021/06/09 09:57:08;;;;;;;;;;;;;;;29.21;24.26;101812.91;5011762;28;96928;-86
2021/06/09 09:59:34;;;;;;;;;;;;;;;29.62;23.90;101811.56;5006155;28;97884;-88
2021/06/09 10:07:27;;;;;;;;;;;;;;;29.93;23.66;101806.69;5039748;28;97225;-87
2021/06/09 10:10:18;;;;;;;;;;;;;;;30.16;23.39;101807.06;5037147;28;96790;-88
2021/06/09 10:13:07;;;;;;;;;;;;;;;30.03;23.49;101802.84;5038928;28;96830;-87
2021/06/09 10:18:18;;;;;;;;;;;;;;;30.03;23.58;101802.00;5018842;28;97074;-87
2021/06/09 10:20:48;;;;;;;;;;;;;;;30.13;23.30;101805.47;5025700;28;100384;-84
2021/06/09 10:23:37;;;;;;;;;;;;;;;30.26;23.31;101799.66;5025907;28;99197;-85
2021/06/09 10:26:20;;;;;;;;;;;;;;;30.08;23.86;101802.38;5025030;28;96869;-85
2021/06/09 10:28:57;;;;;;;;;;;;;;;30.38;22.96;101799.25;5022156;28;97237;-85
2021/06/09 10:31:23;;;;;;;;;;;;;;;28.93;24.51;101796.53;5032462;28;99870;-85
2021/06/09 10:33:50;;;;;;;;;;;;;;;29.70;23.85;101787.16;5031904;28;99760;-84
2021/06/09 10:36:18;;;;;;;;;;;;;;;29.74;23.79;101785.81;5030164;28;96703;-84
2021/06/09 10:38:46;;;;;;;;;;;;;;;30.04;23.16;101790.09;5028889;28;97204;-84
2021/06/09 10:41:15;;;;;;;;;;;;;;;29.95;23.37;101799.19;5030118;28;97802;-85
2021/06/09 10:46:28;;;;;;;;;;;;;;;30.11;22.91;101783.00;5020038;28;96761;-87
2021/06/09 10:49:01;;;;;;;;;;;;;;;29.98;23.01;101779.81;5025281;28;96754;-86
2021/06/09 10:51:30;;;;;;;;;;;;;;;29.62;23.48;101779.72;5031152;28;99914;-86
2021/06/09 10:53:58;;;;;;;;;;;;;;;30.00;23.31;101773.16;5024132;28;99405;-89
2021/06/09 10:56:44;;;;;;;;;;;;;;;29.48;24.12;101771.22;5068924;22;96958;-88
2021/06/09 10:59:14;;;;;;;;;;;;;;;28.85;24.65;101763.75;4989799;28;97246;-89
2021/06/09 11:01:41;;;;;;;;;;;;;;;28.96;24.63;101770.00;5011212;28;99516;-86
2021/06/09 11:04:12;;;;;;;;;;;;;;;29.47;23.77;101764.91;5006575;28;100151;-89
2021/06/09 11:09:27;;;;;;;;;;;;;;;28.86;24.62;101765.47;5012149;28;96745;-90
2021/06/09 11:17:43;;;;;;;;;;;;;;;28.43;24.63;101757.81;5013989;28;96753;-88
2021/06/09 11:20:12;;;;;;;;;;;;;;;29.45;23.78;101742.44;5016790;28;97562;-86
2021/06/09 11:22:46;;;;;;;;;;;;;;;30.15;22.94;101742.66;5012744;28;99912;-90
2021/06/09 11:27:58;;;;;;;;;;;;;;;30.39;22.15;101751.03;5004778;28;96747;-85
2021/06/09 11:30:43;;;;;;;;;;;;;;;30.60;22.39;101748.81;5011986;28;96868;-89
2021/06/09 11:36:32;;;;;;;;;;;;;;;30.15;22.29;101737.19;5005842;28;98153;-91
2021/06/09 11:45:02;;;;;;;;;;;;;;;29.85;23.28;101725.69;5128657;22;99872;-87
2021/06/09 11:50:41;;;;;;;;;;;;;;;28.55;24.49;101731.34;5004348;28;96658;-91
2021/06/09 11:53:20;;;;;;;;;;;;;;;28.91;24.60;101724.22;4994565;28;96036;-92
2021/06/09 11:56:08;;;;;;;;;;;;;;;30.06;23.68;101725.38;5139140;23;99271;-93
2021/06/09 12:01:38;;;;;;;;;;;;;;;29.32;23.66;101717.41;5042010;28;95919;-92
2021/06/09 12:06:45;;;;;;;;;;;;;;;30.31;23.13;101721.84;5079069;22;97569;-92
2021/06/09 12:09:18;;;;;;;;;;;;;;;30.47;22.46;101718.34;5042690;27;98349;-90
2021/06/09 12:14:45;;;;;;;;;;;;;;;30.79;22.44;101707.66;5042380;27;96663;-88
2021/06/09 12:17:16;;;;;;;;;;;;;;;30.73;21.61;101711.03;5025998;28;98091;-84
2021/06/09 12:22:42;;;;;;;;;;;;;;;31.17;22.08;101705.50;5038752;27;96087;-83
2021/06/09 12:28:01;;;;;;;;;;;;;;;31.48;20.64;101700.28;5047381;28;98387;-90
2021/06/09 12:30:32;;;;;;;;;;;;;;;31.52;20.93;101685.25;5031909;28;97671;-90
2021/06/09 12:32:59;;;;;;;;;;;;;;;31.58;20.96;101693.63;5040886;27;96896;-89
2021/06/09 12:35:27;;;;;;;;;;;;;;;31.30;21.18;101692.22;5039758;28;96626;-91
2021/06/09 12:38:00;;;;;;;;;;;;;;;31.02;21.48;101688.84;5039971;28;96966;-92
2021/06/09 12:48:20;;;;;;;;;;;;;;;32.05;20.65;101677.47;5126097;22;98874;-84
2021/06/09 12:50:53;;;;;;;;;;;;;;;32.08;20.26;101673.56;5024257;28;97097;-89
2021/06/09 12:53:20;;;;;;;;;;;;;;;32.29;20.39;101675.78;5039747;28;95944;-94
2021/06/09 12:58:31;;;;;;;;;;;;;;;32.61;20.42;101670.22;5012382;28;96570;-83
2021/06/09 13:29:41;;;;;;;;;;;;;;;34.91;16.84;101637.13;5336336;22;100268;-91
2021/06/09 13:32:15;;;;;;;;;;;;;;;35.40;16.75;101638.16;4959426;28;96739;-90
2021/06/09 13:40:10;;;;;;;;;;;;;;;33.61;18.57;101633.78;5032478;27;98090;-86
2021/06/09 13:42:39;;;;;;;;;;;;;;;33.29;19.71;101631.28;5033624;27;97952;-87
2021/06/09 13:45:09;;;;;;;;;;;;;;;32.23;20.18;101619.88;5038545;27;96075;-88
2021/06/09 13:47:52;;;;;;;;;;;;;;;32.43;19.98;101621.19;5037171;27;96120;-89
2021/06/09 13:50:20;;;;;;;;;;;;;;;33.18;19.62;101615.22;5031572;22;97544;-87
2021/06/09 13:55:28;;;;;;;;;;;;;;;34.25;18.36;101615.09;5029704;28;96114;-82
2021/06/09 13:57:56;;;;;;;;;;;;;;;33.47;18.49;101612.69;5020200;28;96071;-86
2021/06/09 14:00:26;;;;;;;;;;;;;;;35.27;17.29;101612.44;5111381;22;99681;-89
2021/06/09 14:02:52;;;;;;;;;;;;;;;36.06;16.25;101604.91;4999718;28;99509;-89
2021/06/09 14:05:24;;;;;;;;;;;;;;;37.85;14.49;101605.44;5087290;22;99381;-90
2021/06/09 14:08:14;;;;;;;;;;;;;;;38.87;13.14;101602.88;5038266;28;96685;-91
2021/06/09 14:15:56;;;;;;;;;;;;;;;41.45;11.75;101598.44;5279440;22;99948;-90
2021/06/09 14:18:28;;;;;;;;;;;;;;;43.20;10.67;101599.16;5019442;28;96606;-88
2021/06/09 14:21:07;;;;;;;;;;;;;;;40.65;12.12;101595.06;5015268;28;96709;-90
2021/06/09 14:26:02;;;;;;;;;;;;;;;43.58;10.00;101601.28;5092161;22;97328;-92
2021/06/09 14:28:43;;;;;;;;;;;;;;;40.40;11.93;101592.38;5015237;28;96889;-90
2021/06/09 14:31:17;;;;;;;;;;;;;;;39.87;12.97;101595.69;5004529;28;101226;-91
2021/06/09 14:33:47;;;;;;;;;;;;;;;36.89;14.82;101590.19;5011311;28;100687;-90
2021/06/09 14:39:38;;;;;;;;;;;;;;;44.66;9.35;101588.69;5004853;28;96098;-90
2021/06/09 14:42:04;;;;;;;;;;;;;;;47.37;7.70;101590.06;5011779;28;96598;-89
2021/06/09 14:48:03;;;;;;;;;;;;;;;39.58;12.74;101577.84;4960946;28;96863;-81
2021/06/09 14:50:28;;;;;;;;;;;;;;;43.19;10.19;101578.03;4997505;28;96974;-81
2021/06/09 14:52:55;;;;;;;;;;;;;;;40.15;12.38;101570.28;4999379;28;98121;-79
2021/06/09 14:55:22;;;;;;;;;;;;;;;37.20;14.35;101574.00;4993422;28;97621;-81
2021/06/09 14:57:48;;;;;;;;;;;;;;;35.59;16.03;101573.41;4996580;28;97567;-79
2021/06/09 15:00:17;;;;;;;;;;;;;;;35.40;15.97;101574.94;4994965;28;97546;-78
2021/06/09 15:02:53;;;;;;;;;;;;;;;35.35;15.86;101568.34;4995561;28;100993;-82
2021/06/09 15:05:24;;;;;;;;;;;;;;;41.03;11.86;101570.69;4992285;28;99629;-79
2021/06/09 15:32:02;;;;;;;;;;;;;;;33.87;17.92;101553.09;4998115;28;98028;-90
2021/06/09 15:34:37;;;;;;;;;;;;;;;33.85;18.22;101536.81;5000482;28;101536;-89
2021/06/09 15:37:05;;;;;;;;;;;;;;;33.86;17.84;101537.69;4999164;28;99042;-86
2021/06/09 15:42:32;;;;;;;;;;;;;;;33.56;18.36;101531.25;5033014;22;96876;-92
2021/06/09 15:44:59;;;;;;;;;;;;;;;33.57;18.83;101531.06;5011828;28;98798;-91
2021/06/09 16:18:35;;;;;;;;;;;;;;;32.54;18.88;101512.44;5112125;22;100501;-90